Sea Cloud II — 9HUE6 — position and weather

sailwx.info

Track history (hours):
 
Tides and Currents Weather Stations Pressure Air Temp Water Temp Dewpoint Dewpoint Depression Visibility Wind Speed Wind Dir Waves Ship Positions

Sea Cloud II

Ship's website: http://www.seacloud.com/en/the-ships/sea-cloud-ii.html

Last reported at 2017-Jul-24 08:26 UTC. Time now 2017-Jul-24 08:37 UTC.
Position N 59°19' E 018°05'.

Length 117 m; draft 6 m.

Type: Passenger vessel. MMSI: 248953000.

Date/timePositionNaut miles runAvg speedWind from/ knotsBaromVisibWave heightAir tempDewpointWater temp
2017-Jul-24 08:26N 59°19' E 018°05'0 0.0
2017-Jul-24 07:49N 59°19' E 018°05'0 0.0
2017-Jul-24 07:30N 59°19' E 018°05'0 0.0
2017-Jul-24 06:58N 59°19' E 018°05'0 0.0
2017-Jul-24 06:25N 59°19' E 018°05'0 0.0
2017-Jul-24 05:55N 59°19' E 018°05'0 0.0
2017-Jul-24 05:25N 59°19' E 018°05'0 0.0
2017-Jul-24 04:55N 59°19' E 018°05'0 0.0
2017-Jul-24 04:24N 59°19' E 018°05'0 0.0
2017-Jul-24 03:59N 59°19' E 018°05'0 0.0
2017-Jul-24 03:30N 59°19' E 018°05'0 0.0
2017-Jul-24 02:55N 59°19' E 018°05'0 0.0
2017-Jul-24 02:28N 59°19' E 018°05'0 0.0
2017-Jul-24 01:56N 59°19' E 018°05'0 0.0
2017-Jul-24 01:28N 59°19' E 018°05'0 0.0
2017-Jul-24 00:55N 59°19' E 018°05'0 0.0
2017-Jul-24 00:28N 59°19' E 018°05'0 0.0
2017-Jul-23 23:59N 59°19' E 018°05'0 0.0
2017-Jul-23 23:25N 59°19' E 018°05'0 0.0
2017-Jul-23 22:58N 59°19' E 018°05'0 0.0
2017-Jul-23 22:29N 59°19' E 018°05'0 0.0
2017-Jul-23 21:59N 59°19' E 018°05'0 0.1
2017-Jul-23 21:27N 59°19' E 018°05'0 0.1
2017-Jul-23 20:57N 59°19' E 018°05'0 0.0
2017-Jul-23 20:25N 59°19' E 018°05'0 0.0
2017-Jul-23 19:55N 59°19' E 018°05'0 0.0
2017-Jul-23 19:25N 59°19' E 018°05'0 0.0
2017-Jul-23 18:55N 59°19' E 018°05'0 0.0
2017-Jul-23 18:25N 59°19' E 018°05'0 0.0
2017-Jul-23 17:49N 59°19' E 018°05'0 0.0
2017-Jul-23 17:28N 59°19' E 018°05'0 0.0
2017-Jul-23 16:58N 59°19' E 018°05'0 0.0
2017-Jul-23 16:25N 59°19' E 018°05'0 0.0
2017-Jul-23 15:55N 59°19' E 018°05'0 0.0
2017-Jul-23 15:19N 59°19' E 018°05'0 0.0
2017-Jul-23 14:55N 59°19' E 018°05'0 0.0
2017-Jul-23 14:25N 59°19' E 018°05'0 0.0
2017-Jul-23 13:49N 59°19' E 018°05'0 0.0
2017-Jul-23 13:13N 59°19' E 018°05'0 0.0
2017-Jul-23 12:55N 59°19' E 018°05'0 0.0
2017-Jul-23 12:25N 59°19' E 018°05'0 0.0
2017-Jul-23 11:55N 59°19' E 018°05'0 0.0
2017-Jul-23 11:25N 59°19' E 018°05'0 0.0
2017-Jul-23 10:55N 59°19' E 018°05'0 0.0
2017-Jul-23 10:25N 59°19' E 018°05'0 0.9
2017-Jul-23 10:00N 59°19' E 018°06'4 9.0
2017-Jul-23 09:30N 59°21' E 018°14'5 9.6
2017-Jul-23 08:59N 59°22' E 018°24'3 5.5
2017-Jul-23 08:28N 59°25' E 018°25'3 5.5
2017-Jul-23 08:00N 59°26' E 018°30'510.8
2017-Jul-23 07:30N 59°23' E 018°38'510.2
2017-Jul-23 07:00N 59°20' E 018°47'510.6
2017-Jul-23 06:30N 59°16' E 018°54'510.5
2017-Jul-23 06:00N 59°14' E 019°03'3 6.9
2017-Jul-23 05:30N 59°14' E 019°10'4 7.2
2017-Jul-23 05:00N 59°15' E 019°17'4 7.1
2017-Jul-23 04:30N 59°15' E 019°24'4 7.0
2017-Jul-23 04:00N 59°15' E 019°31'3 7.0
2017-Jul-23 03:30N 59°16' E 019°37'4 7.2
2017-Jul-23 03:00N 59°16' E 019°44'3 6.8
2017-Jul-23 02:30N 59°16' E 019°51'4 7.1
2017-Jul-23 02:00N 59°17' E 019°58'4 7.1
2017-Jul-23 01:30N 59°17' E 020°05'4 7.0
2017-Jul-23 01:00N 59°18' E 020°12'4 7.2
2017-Jul-23 00:30N 59°18' E 020°19'4 7.2
2017-Jul-23 00:00N 59°18' E 020°26'4 7.1
2017-Jul-22 23:30N 59°19' E 020°33'4 7.1
2017-Jul-22 23:00N 59°19' E 020°40'4 8.4
2017-Jul-22 22:30N 59°19' E 020°48'510.5
2017-Jul-22 22:00N 59°20' E 020°58'510.4
2017-Jul-22 21:30N 59°20' E 021°08'511.0
2017-Jul-22 21:00N 59°21' E 021°19'5 9.7
2017-Jul-22 20:30N 59°22' E 021°28'510.9
2017-Jul-22 20:00N 59°22' E 021°39'611.1
2017-Jul-22 19:31N 59°23' E 021°50'4 8.7
2017-Jul-22 19:00N 59°24' E 021°58'510.1
2017-Jul-22 18:30N 59°25' E 022°08'510.1
2017-Jul-22 18:00N 59°27' E 022°17'510.2
2017-Jul-22 17:30N 59°30' E 022°26'510.1
2017-Jul-22 17:00N 59°32' E 022°35'510.2
2017-Jul-22 16:31N 59°34' E 022°44'5 9.7
2017-Jul-22 16:01N 59°35' E 022°54'5 9.8
2017-Jul-22 15:30N 59°35' E 023°03'5 9.9
2017-Jul-22 15:00N 59°34' E 023°13'10 9.9
2017-Jul-22 14:00N 59°33' E 023°32'510.1
2017-Jul-22 13:30N 59°32' E 023°42'510.1
2017-Jul-22 13:00N 59°32' E 023°52'510.0
2017-Jul-22 12:30N 59°31' E 024°02'510.0
2017-Jul-22 12:00N 59°31' E 024°12'510.1
2017-Jul-22 11:30N 59°30' E 024°22'510.0
2017-Jul-22 11:00N 59°30' E 024°31'510.0
2017-Jul-22 10:30N 59°32' E 024°41'5 9.2
2017-Jul-22 10:00N 59°28' E 024°46'1 1.6
2017-Jul-22 09:29N 59°27' E 024°46'0 0.0
2017-Jul-22 08:59N 59°27' E 024°46'0 0.0
2017-Jul-22 08:29N 59°27' E 024°46'0 0.0
2017-Jul-22 07:59N 59°27' E 024°46'0 0.0
2017-Jul-22 07:29N 59°27' E 024°46'0 0.0
2017-Jul-22 06:59N 59°27' E 024°46'0 0.0
2017-Jul-22 06:29N 59°27' E 024°46'0 0.0
2017-Jul-22 05:59N 59°27' E 024°46'0 0.0
2017-Jul-22 05:29N 59°27' E 024°46'0 0.4
2017-Jul-22 05:00N 59°27' E 024°46'3 6.5
2017-Jul-22 04:31N 59°30' E 024°44'611.2
2017-Jul-22 04:01N 59°36' E 024°40'4 7.8
2017-Jul-22 03:31N 59°39' E 024°39'2 3.0
2017-Jul-22 03:00N 59°41' E 024°39'2 3.8
2017-Jul-22 02:31N 59°43' E 024°39'2 4.1
2017-Jul-22 02:01N 59°45' E 024°39'2 4.0
2017-Jul-22 01:31N 59°47' E 024°40'3 6.6
2017-Jul-22 01:01N 59°50' E 024°40'3 5.9
2017-Jul-22 00:31N 59°53' E 024°40'1 2.9
2017-Jul-22 00:00N 59°54' E 024°41'2 3.3
2017-Jul-21 23:30N 59°55' E 024°44'2 3.2
2017-Jul-21 23:00N 59°56' E 024°47'2 3.1
2017-Jul-21 22:30N 59°57' E 024°49'2 3.0
2017-Jul-21 22:00N 59°58' E 024°52'1 2.9
2017-Jul-21 21:30N 59°59' E 024°54'1 2.9
2017-Jul-21 21:00N 59°60' E 024°56'2 3.2
2017-Jul-21 20:30N 60°01' E 024°57'2 3.8
2017-Jul-21 20:00N 60°03' E 024°58'3 5.7
2017-Jul-21 19:30N 60°06' E 024°59'3 6.9
2017-Jul-21 19:00N 60°10' E 024°59'1 1.6
2017-Jul-21 18:30N 60°10' E 024°58'0 0.0
2017-Jul-21 18:00N 60°10' E 024°58'0 0.0
2017-Jul-21 17:30N 60°10' E 024°58'0 0.0
2017-Jul-21 17:00N 60°10' E 024°58'0 0.0
2017-Jul-21 16:30N 60°10' E 024°58'0 0.0
2017-Jul-21 16:00N 60°10' E 024°58'0 0.0
2017-Jul-21 15:30N 60°10' E 024°58'0 0.0
2017-Jul-21 15:00N 60°10' E 024°58'0 0.0
2017-Jul-21 14:30N 60°10' E 024°58'0 0.0
2017-Jul-21 14:00N 60°10' E 024°58'0 0.0
2017-Jul-21 13:30N 60°10' E 024°58'0 0.0
2017-Jul-21 12:57N 60°10' E 024°58'0 0.0
2017-Jul-21 12:30N 60°10' E 024°58'0 0.0
2017-Jul-21 12:00N 60°10' E 024°58'0 0.0
2017-Jul-21 11:30N 60°10' E 024°58'0 0.0
2017-Jul-21 11:00N 60°10' E 024°58'0 0.0
2017-Jul-21 10:30N 60°10' E 024°58'1 2.0
2017-Jul-21 10:01N 60°09' E 024°59'4 8.9
2017-Jul-21 09:30N 60°05' E 024°58'4 8.9
2017-Jul-21 09:00N 60°01' E 024°58'5 9.4
2017-Jul-21 08:30N 59°56' E 025°03'3 6.6
2017-Jul-21 08:00N 59°54' E 025°07'0 0.4
2017-Jul-21 07:30N 59°54' E 025°06'0 0.4
2017-Jul-21 07:00N 59°54' E 025°06'0 0.6
2017-Jul-21 06:31N 59°54' E 025°05'1 1.0
2017-Jul-21 06:00N 59°54' E 025°04'1 2.2
2017-Jul-21 05:30N 59°53' E 025°03'4 7.3
2017-Jul-21 05:00N 59°53' E 025°10'611.5
2017-Jul-21 04:31N 59°54' E 025°21'611.5
2017-Jul-21 04:00N 59°54' E 025°33'611.4
2017-Jul-21 03:31N 59°55' E 025°44'611.7
2017-Jul-21 03:01N 59°56' E 025°55'611.5
2017-Jul-21 02:30N 59°58' E 026°06'611.7
2017-Jul-21 02:01N 59°59' E 026°18'611.5
2017-Jul-21 01:30N 60°01' E 026°29'611.2
2017-Jul-21 01:01N 60°01' E 026°40'611.5
2017-Jul-21 00:31N 60°00' E 026°51'611.5
2017-Jul-21 00:00N 59°60' E 027°03'611.5
2017-Jul-20 23:30N 60°02' E 027°13'611.5
2017-Jul-20 23:01N 60°05' E 027°22'611.4
2017-Jul-20 22:30N 60°08' E 027°32'611.5
2017-Jul-20 22:00N 60°11' E 027°42'510.7
2017-Jul-20 21:31N 60°12' E 027°53'611.4
2017-Jul-20 21:00N 60°10' E 028°04'714.4
2017-Jul-20 20:30N 60°07' E 028°18'4 9.1
2017-Jul-20 20:00N 60°05' E 028°25'510.2
2017-Jul-20 19:30N 60°03' E 028°35'611.4
2017-Jul-20 19:01N 60°03' E 028°46'611.2
2017-Jul-20 18:27N 60°02' E 028°59'811.2
2017-Jul-20 17:46N 60°02' E 029°14'411.4
2017-Jul-20 17:23N 60°02' E 029°23'1210.5
2017-Jul-20 16:14N 59°59' E 029°46'410.8
2017-Jul-20 15:52N 59°57' E 029°53'411.5
2017-Jul-20 15:30N 59°55' E 030°01'510.3
2017-Jul-20 15:00N 59°57' E 030°10'1 0.5
2017-Jul-20 13:58N 59°57' E 030°11'0 0.0
2017-Jul-20 13:28N 59°57' E 030°11'0 0.0
2017-Jul-20 12:58N 59°57' E 030°11'0 0.0
2017-Jul-20 12:28N 59°57' E 030°11'0 0.0
2017-Jul-20 11:58N 59°57' E 030°11'0 0.0
2017-Jul-20 11:28N 59°57' E 030°11'0 0.0
2017-Jul-20 10:58N 59°57' E 030°11'0 0.0
2017-Jul-20 10:30N 59°57' E 030°11'0 0.0
2017-Jul-20 09:58N 59°57' E 030°11'0 0.0
2017-Jul-20 09:28N 59°57' E 030°11'0 0.0
2017-Jul-20 08:58N 59°57' E 030°11'0 0.0
2017-Jul-20 08:31N 59°57' E 030°11'0 0.0
2017-Jul-20 08:00N 59°57' E 030°11'0 0.0
2017-Jul-20 07:31N 59°57' E 030°11'0 0.0
2017-Jul-20 06:58N 59°57' E 030°11'0 0.0
2017-Jul-20 06:30N 59°57' E 030°11'0 0.0
2017-Jul-20 05:57N 59°57' E 030°11'0 0.0
2017-Jul-20 05:25N 59°57' E 030°11'0 0.0
2017-Jul-20 05:00N 59°57' E 030°11'0 0.0
2017-Jul-20 04:27N 59°57' E 030°11'0 0.0
2017-Jul-20 04:00N 59°57' E 030°11'0 0.0
2017-Jul-20 03:28N 59°57' E 030°11'0 0.0
2017-Jul-20 03:00N 59°57' E 030°11'0 0.0
2017-Jul-20 02:28N 59°57' E 030°11'0 0.0
2017-Jul-20 01:57N 59°57' E 030°11'0 0.0
2017-Jul-20 01:28N 59°57' E 030°11'0 0.0
2017-Jul-20 01:01N 59°57' E 030°11'0 0.0
2017-Jul-20 00:27N 59°57' E 030°11'0 0.0
2017-Jul-20 00:00N 59°57' E 030°11'0 0.0
2017-Jul-19 23:27N 59°57' E 030°11'0 0.0
2017-Jul-19 23:00N 59°57' E 030°11'0 0.0
2017-Jul-19 22:30N 59°57' E 030°11'0 0.0
2017-Jul-19 22:00N 59°57' E 030°11'0 0.0
2017-Jul-19 21:30N 59°57' E 030°12'0 0.0
2017-Jul-19 21:00N 59°57' E 030°11'0 0.0
2017-Jul-19 20:30N 59°57' E 030°11'0 0.0
2017-Jul-19 20:00N 59°57' E 030°11'0 0.0
2017-Jul-19 19:31N 59°57' E 030°11'0 0.0
2017-Jul-19 19:00N 59°57' E 030°11'0 0.0
2017-Jul-19 18:30N 59°57' E 030°11'0 0.0
2017-Jul-19 18:01N 59°57' E 030°11'0 0.0
2017-Jul-19 17:30N 59°57' E 030°11'0 0.0
2017-Jul-19 17:00N 59°57' E 030°11'0 0.0
2017-Jul-19 16:30N 59°57' E 030°11'0 0.0
2017-Jul-19 16:00N 59°57' E 030°11'0 0.0
2017-Jul-19 15:31N 59°57' E 030°11'0 0.0
2017-Jul-19 14:57N 59°57' E 030°11'0 0.0
2017-Jul-19 14:30N 59°57' E 030°11'0 0.0
2017-Jul-19 14:00N 59°57' E 030°11'0 0.0
2017-Jul-19 13:30N 59°57' E 030°11'0 0.0
2017-Jul-19 13:00N 59°57' E 030°11'0 0.0
2017-Jul-19 12:30N 59°57' E 030°11'0 0.0
2017-Jul-19 12:00N 59°57' E 030°11'0 0.0
2017-Jul-19 11:30N 59°57' E 030°11'0 0.0
2017-Jul-19 11:00N 59°57' E 030°11'0 0.0
2017-Jul-19 10:27N 59°57' E 030°11'0 0.0
2017-Jul-19 10:00N 59°57' E 030°12'0 0.0
2017-Jul-19 09:30N 59°57' E 030°11'0 0.0
2017-Jul-19 09:00N 59°57' E 030°11'0 0.0
2017-Jul-19 08:30N 59°57' E 030°11'0 0.0
2017-Jul-19 07:57N 59°57' E 030°11'0 0.0
2017-Jul-19 07:30N 59°57' E 030°11'0 0.0
2017-Jul-19 06:57N 59°57' E 030°11'0 0.0
2017-Jul-19 06:30N 59°57' E 030°11'0 0.0
2017-Jul-19 06:00N 59°57' E 030°11'0 0.0
2017-Jul-19 05:30N 59°57' E 030°11'0 0.0
2017-Jul-19 05:00N 59°57' E 030°11'3 4.7
2017-Jul-19 04:26N 59°57' E 030°06'410.3
2017-Jul-19 04:00N 59°56' E 029°57'611.4
2017-Jul-19 03:30N 59°58' E 029°47'611.4
2017-Jul-19 03:00N 60°00' E 029°37'16 8.3
2017-Jul-19 01:04N 60°02' E 029°05'0 7.0
2017-Jul-19 01:00N 60°02' E 029°04'6 7.1
2017-Jul-19 00:05N 60°02' E 028°51'1 7.0
2017-Jul-19 00:00N 60°02' E 028°50'4 7.0
2017-Jul-18 23:29N 60°02' E 028°42'3 7.3
2017-Jul-18 23:00N 60°02' E 028°35'510.4
2017-Jul-18 22:30N 60°03' E 028°25'510.5
2017-Jul-18 22:00N 60°07' E 028°17'510.5
2017-Jul-18 21:30N 60°08' E 028°07'510.7
2017-Jul-18 21:00N 60°09' E 027°57'611.2
2017-Jul-18 20:31N 60°10' E 027°45'510.3
2017-Jul-18 20:00N 60°07' E 027°36'611.6
2017-Jul-18 19:30N 60°05' E 027°26'5 9.9
2017-Jul-18 19:00N 60°02' E 027°18'611.7
2017-Jul-18 18:30N 59°59' E 027°08'611.6
2017-Jul-18 18:00N 59°58' E 026°56'611.8
2017-Jul-18 17:30N 59°59' E 026°45'611.6
2017-Jul-18 17:00N 59°58' E 026°33'611.9
2017-Jul-18 16:30N 59°57' E 026°22'611.8
2017-Jul-18 16:00N 59°55' E 026°10'611.7
2017-Jul-18 15:30N 59°53' E 025°59'611.7
2017-Jul-18 15:00N 59°53' E 025°48'1010.2
2017-Jul-18 14:00N 59°53' E 025°27'2 4.3
2017-Jul-18 13:30N 59°54' E 025°24'2 3.6
2017-Jul-18 13:00N 59°55' E 025°21'2 4.4
2017-Jul-18 12:30N 59°56' E 025°17'2 4.9
2017-Jul-18 12:00N 59°57' E 025°12'2 4.4
2017-Jul-18 11:30N 59°58' E 025°08'2 4.4
2017-Jul-18 11:00N 59°59' E 025°04'2 3.9
2017-Jul-18 10:30N 59°60' E 025°01'2 4.8
2017-Jul-18 10:00N 60°01' E 024°58'5 9.3
2017-Jul-18 09:31N 60°06' E 024°58'3 6.9
2017-Jul-18 09:00N 60°10' E 024°59'1 1.7
2017-Jul-18 08:30N 60°10' E 024°58'0 0.0
2017-Jul-18 08:00N 60°10' E 024°58'0 0.0
2017-Jul-18 07:30N 60°10' E 024°58'0 0.0
2017-Jul-18 07:00N 60°10' E 024°58'0 0.0
2017-Jul-18 06:30N 60°10' E 024°58'0 0.0
2017-Jul-18 06:00N 60°10' E 024°58'0 0.0
2017-Jul-18 05:30N 60°10' E 024°58'0 0.0
2017-Jul-18 05:00N 60°10' E 024°58'0 0.0
2017-Jul-18 04:30N 60°10' E 024°58'1 1.2
2017-Jul-18 04:00N 60°10' E 024°59'4 7.9
2017-Jul-18 03:30N 60°06' E 024°58'4 7.8
2017-Jul-18 03:00N 60°02' E 024°58'2 3.7
2017-Jul-18 02:30N 59°60' E 024°58'3 5.8
2017-Jul-18 02:00N 59°59' E 025°03'2 4.3
2017-Jul-18 01:30N 59°58' E 025°07'2 3.3
2017-Jul-18 01:00N 59°57' E 025°10'2 3.0
2017-Jul-18 00:30N 59°57' E 025°13'1 2.7
2017-Jul-18 00:00N 59°56' E 025°16'1 2.5
2017-Jul-17 23:31N 59°56' E 025°18'1 2.2
2017-Jul-17 23:00N 59°55' E 025°20'1 2.0
2017-Jul-17 22:30N 59°55' E 025°22'1 2.0
2017-Jul-17 22:00N 59°54' E 025°24'2 3.7
2017-Jul-17 21:30N 59°53' E 025°26'3 6.1
2017-Jul-17 21:00N 59°50' E 025°26'3 6.4
2017-Jul-17 20:31N 59°47' E 025°26'2 4.1
2017-Jul-17 20:01N 59°46' E 025°22'2 4.9
2017-Jul-17 19:30N 59°46' E 025°17'3 5.1
2017-Jul-17 19:00N 59°46' E 025°12'2 3.9
2017-Jul-17 18:30N 59°45' E 025°08'2 4.0
2017-Jul-17 18:00N 59°45' E 025°04'2 4.3
2017-Jul-17 17:30N 59°44' E 025°00'2 4.1
2017-Jul-17 17:00N 59°44' E 024°56'2 3.8
2017-Jul-17 16:31N 59°43' E 024°52'3 5.3
2017-Jul-17 16:00N 59°42' E 024°49'3 6.9
2017-Jul-17 15:31N 59°39' E 024°45'2 4.6
2017-Jul-17 15:01N 59°37' E 024°42'4 8.2
2017-Jul-17 14:31N 59°33' E 024°44'510.5
2017-Jul-17 14:00N 59°28' E 024°46'1 1.7
2017-Jul-17 13:30N 59°27' E 024°46'0 0.0
2017-Jul-17 13:00N 59°27' E 024°46'0 0.0
2017-Jul-17 12:30N 59°27' E 024°46'0 0.0
2017-Jul-17 11:57N 59°27' E 024°46'0 0.0
2017-Jul-17 11:30N 59°27' E 024°46'0 0.0
2017-Jul-17 11:00N 59°27' E 024°46'0 0.0
2017-Jul-17 10:30N 59°27' E 024°46'0 0.0
2017-Jul-17 10:00N 59°27' E 024°46'0 0.0
2017-Jul-17 09:30N 59°27' E 024°46'0 0.0
2017-Jul-17 09:00N 59°27' E 024°46'0 0.0
2017-Jul-17 08:30N 59°27' E 024°46'0 0.0
2017-Jul-17 08:00N 59°27' E 024°46'0 0.0
2017-Jul-17 07:30N 59°27' E 024°46'0 0.0
2017-Jul-17 07:00N 59°27' E 024°46'0 0.0
2017-Jul-17 06:29N 59°27' E 024°46'0 0.0
2017-Jul-17 06:00N 59°27' E 024°46'0 0.0
2017-Jul-17 05:30N 59°27' E 024°46'0 0.9
2017-Jul-17 05:00N 59°27' E 024°46'4 8.6
2017-Jul-17 04:30N 59°30' E 024°39'5 9.1
2017-Jul-17 04:00N 59°30' E 024°30'2 4.7
2017-Jul-17 03:30N 59°30' E 024°26'2 4.1
2017-Jul-17 03:00N 59°30' E 024°22'2 4.3
2017-Jul-17 02:30N 59°30' E 024°18'3 5.6
2017-Jul-17 02:00N 59°30' E 024°12'3 5.8
2017-Jul-17 01:30N 59°30' E 024°06'2 4.2
2017-Jul-17 01:00N 59°30' E 024°02'3 5.9
2017-Jul-17 00:30N 59°30' E 023°56'3 6.9
2017-Jul-17 00:00N 59°30' E 023°50'3 7.0
2017-Jul-16 23:30N 59°30' E 023°43'3 7.0
2017-Jul-16 23:00N 59°29' E 023°36'3 6.9
2017-Jul-16 22:30N 59°29' E 023°29'4 7.1
2017-Jul-16 22:00N 59°27' E 023°23'4 7.1
2017-Jul-16 21:30N 59°26' E 023°16'4 7.5
2017-Jul-16 21:00N 59°25' E 023°09'4 8.1
2017-Jul-16 20:30N 59°23' E 023°02'3 6.7
2017-Jul-16 20:01N 59°22' E 022°56'3 5.4
2017-Jul-16 19:30N 59°20' E 022°51'1 2.4
2017-Jul-16 19:00N 59°20' E 022°49'1 2.4
2017-Jul-16 18:30N 59°19' E 022°47'1 2.4
2017-Jul-16 18:00N 59°19' E 022°45'1 2.4
2017-Jul-16 17:30N 59°19' E 022°43'1 2.4
2017-Jul-16 17:01N 59°18' E 022°40'1 2.4
2017-Jul-16 16:30N 59°18' E 022°38'4 8.3
2017-Jul-16 16:00N 59°17' E 022°30'612.0
2017-Jul-16 15:31N 59°17' E 022°18'611.5
2017-Jul-16 15:00N 59°17' E 022°07'4 8.2
2017-Jul-16 14:30N 59°17' E 021°59'3 5.1
2017-Jul-16 14:00N 59°17' E 021°54'2 4.7
2017-Jul-16 13:30N 59°17' E 021°49'2 4.7
2017-Jul-16 13:00N 59°17' E 021°45'2 4.6
2017-Jul-16 12:30N 59°17' E 021°40'3 5.7
2017-Jul-16 12:00N 59°17' E 021°35'2 4.6
2017-Jul-16 11:30N 59°17' E 021°30'3 5.0
2017-Jul-16 11:01N 59°17' E 021°25'2 4.6
2017-Jul-16 10:30N 59°17' E 021°21'2 4.4
2017-Jul-16 10:01N 59°17' E 021°17'2 4.2
2017-Jul-16 09:30N 59°17' E 021°12'2 4.2
2017-Jul-16 09:00N 59°17' E 021°08'2 4.0
2017-Jul-16 08:30N 59°17' E 021°04'2 4.5
2017-Jul-16 08:00N 59°16' E 021°00'2 3.6
2017-Jul-16 07:31N 59°16' E 020°57'2 3.4
2017-Jul-16 07:00N 59°16' E 020°53'2 3.2
2017-Jul-16 06:30N 59°16' E 020°50'2 3.3
2017-Jul-16 06:00N 59°16' E 020°47'1 3.0
2017-Jul-16 05:30N 59°16' E 020°44'2 3.3
2017-Jul-16 05:00N 59°16' E 020°41'2 3.9
2017-Jul-16 04:30N 59°16' E 020°37'2 3.9
2017-Jul-16 04:01N 59°16' E 020°33'2 4.0
2017-Jul-16 03:31N 59°16' E 020°29'2 4.1
2017-Jul-16 03:00N 59°16' E 020°25'2 3.7
2017-Jul-16 02:31N 59°15' E 020°22'4 7.0
2017-Jul-16 02:00N 59°15' E 020°15'3 6.0
2017-Jul-16 01:31N 59°15' E 020°09'2 3.9
2017-Jul-16 01:00N 59°15' E 020°05'2 4.7
2017-Jul-16 00:30N 59°15' E 020°01'2 4.2
2017-Jul-16 00:00N 59°15' E 019°57'3 6.4
2017-Jul-15 23:30N 59°15' E 019°50'4 7.3
2017-Jul-15 23:00N 59°15' E 019°43'3 6.7
2017-Jul-15 22:30N 59°15' E 019°37'2 4.5
2017-Jul-15 22:00N 59°15' E 019°32'3 6.8
2017-Jul-15 21:30N 59°14' E 019°25'4 8.0
2017-Jul-15 21:00N 59°14' E 019°18'3 6.6
2017-Jul-15 20:30N 59°14' E 019°11'4 7.6
2017-Jul-15 20:00N 59°14' E 019°04'4 8.2
2017-Jul-15 19:30N 59°16' E 018°57'4 7.5
2017-Jul-15 19:00N 59°18' E 018°51'510.2
2017-Jul-15 18:30N 59°22' E 018°44'511.0
2017-Jul-15 18:00N 59°23' E 018°34'5 9.9
2017-Jul-15 17:30N 59°26' E 018°25'4 8.5
2017-Jul-15 17:00N 59°21' E 018°26'5 9.8
2017-Jul-15 16:30N 59°22' E 018°17'510.2
2017-Jul-15 16:00N 59°19' E 018°08'1 1.9
2017-Jul-15 15:30N 59°19' E 018°06'0 0.0
2017-Jul-15 15:00N 59°19' E 018°06'0 0.0
2017-Jul-15 14:00N 59°19' E 018°06'0 0.0
2017-Jul-15 13:30N 59°19' E 018°06'0 0.0
2017-Jul-15 13:00N 59°19' E 018°06'0 0.0
2017-Jul-15 12:30N 59°19' E 018°06'0 0.0
2017-Jul-15 12:00N 59°19' E 018°06'0 0.0
2017-Jul-15 11:30N 59°19' E 018°06'0 0.0
2017-Jul-15 11:00N 59°19' E 018°06'0 0.0
2017-Jul-15 10:30N 59°19' E 018°06'0 0.0
2017-Jul-15 10:00N 59°19' E 018°06'0 0.0
2017-Jul-15 09:30N 59°19' E 018°06'0 0.0
2017-Jul-15 09:00N 59°19' E 018°06'0 0.0
2017-Jul-15 08:30N 59°19' E 018°06'0 0.0
2017-Jul-15 08:00N 59°19' E 018°06'0 0.0
2017-Jul-15 07:30N 59°19' E 018°06'0 0.0
2017-Jul-15 07:00N 59°19' E 018°06'0 0.0
2017-Jul-15 06:30N 59°19' E 018°06'1 2.8
2017-Jul-15 06:00N 59°19' E 018°09'511.0
2017-Jul-15 05:31N 59°23' E 018°17'5 9.7
2017-Jul-15 05:00N 59°22' E 018°27'5 9.7
2017-Jul-15 04:30N 59°26' E 018°23'610.6
2017-Jul-15 03:58N 59°23' E 018°33'511.0
2017-Jul-15 03:30N 59°22' E 018°43'511.0
2017-Jul-15 03:00N 59°18' E 018°50'4 9.2
2017-Jul-15 02:30N 59°16' E 018°58'4 9.0
2017-Jul-15 02:01N 59°13' E 019°05'3 5.6
2017-Jul-15 01:30N 59°12' E 019°10'3 6.5
2017-Jul-15 01:00N 59°09' E 019°10'3 6.7
2017-Jul-15 00:31N 59°06' E 019°08'4 8.4
2017-Jul-15 00:00N 59°02' E 019°06'4 8.1
2017-Jul-14 23:31N 58°58' E 019°03'4 7.3
2017-Jul-14 23:00N 58°55' E 019°01'510.3
2017-Jul-14 22:30N 58°50' E 018°58'510.4
2017-Jul-14 22:01N 58°45' E 018°54'510.4
2017-Jul-14 21:30N 58°40' E 018°51'510.5
2017-Jul-14 21:00N 58°35' E 018°47'510.5
2017-Jul-14 20:30N 58°30' E 018°44'611.0
2017-Jul-14 20:00N 58°25' E 018°41'510.2
2017-Jul-14 19:30N 58°20' E 018°38'510.7
2017-Jul-14 19:00N 58°15' E 018°35'5 9.9
2017-Jul-14 18:30N 58°10' E 018°31'612.1
2017-Jul-14 18:01N 58°05' E 018°26'510.3
2017-Jul-14 17:30N 58°00' E 018°22'5 9.9
2017-Jul-14 17:00N 57°55' E 018°19'610.5
2017-Jul-14 16:24N 57°49' E 018°16'3 8.6
2017-Jul-14 16:00N 57°46' E 018°15'1 1.3
2017-Jul-14 15:30N 57°45' E 018°14'1 1.1
2017-Jul-14 15:00N 57°45' E 018°13'1 1.0
2017-Jul-14 14:19N 57°45' E 018°12'0 0.9
2017-Jul-14 14:00N 57°45' E 018°12'0 0.8
2017-Jul-14 13:30N 57°44' E 018°11'0 0.9
2017-Jul-14 13:01N 57°44' E 018°10'1 1.4
2017-Jul-14 12:27N 57°43' E 018°10'  
Track history (hours):
 
Tides and Currents Weather Stations Pressure Air Temp Water Temp Dewpoint Dewpoint Depression Visibility Wind Speed Wind Dir Waves Ship Positions

Sea Cloud II

Ship's website: http://www.seacloud.com/en/the-ships/sea-cloud-ii.html

Last reported at 2017-Jul-24 08:26 UTC. Time now 2017-Jul-24 08:37 UTC.
Position N 59°19' E 018°05'.

Length 117 m; draft 6 m.

Type: Passenger vessel. MMSI: 248953000.

Date/timePositionNaut miles runAvg speedWind from/ knotsBaromVisibWave heightAir tempDewpointWater temp
2017-Jul-24 08:26N 59°19' E 018°05'0 0.0
2017-Jul-24 07:49N 59°19' E 018°05'0 0.0
2017-Jul-24 07:30N 59°19' E 018°05'0 0.0
2017-Jul-24 06:58N 59°19' E 018°05'0 0.0
2017-Jul-24 06:25N 59°19' E 018°05'0 0.0
2017-Jul-24 05:55N 59°19' E 018°05'0 0.0
2017-Jul-24 05:25N 59°19' E 018°05'0 0.0
2017-Jul-24 04:55N 59°19' E 018°05'0 0.0
2017-Jul-24 04:24N 59°19' E 018°05'0 0.0
2017-Jul-24 03:59N 59°19' E 018°05'0 0.0
2017-Jul-24 03:30N 59°19' E 018°05'0 0.0
2017-Jul-24 02:55N 59°19' E 018°05'0 0.0
2017-Jul-24 02:28N 59°19' E 018°05'0 0.0
2017-Jul-24 01:56N 59°19' E 018°05'0 0.0
2017-Jul-24 01:28N 59°19' E 018°05'0 0.0
2017-Jul-24 00:55N 59°19' E 018°05'0 0.0
2017-Jul-24 00:28N 59°19' E 018°05'0 0.0
2017-Jul-23 23:59N 59°19' E 018°05'0 0.0
2017-Jul-23 23:25N 59°19' E 018°05'0 0.0
2017-Jul-23 22:58N 59°19' E 018°05'0 0.0
2017-Jul-23 22:29N 59°19' E 018°05'0 0.0
2017-Jul-23 21:59N 59°19' E 018°05'0 0.1
2017-Jul-23 21:27N 59°19' E 018°05'0 0.1
2017-Jul-23 20:57N 59°19' E 018°05'0 0.0
2017-Jul-23 20:25N 59°19' E 018°05'0 0.0
2017-Jul-23 19:55N 59°19' E 018°05'0 0.0
2017-Jul-23 19:25N 59°19' E 018°05'0 0.0
2017-Jul-23 18:55N 59°19' E 018°05'0 0.0
2017-Jul-23 18:25N 59°19' E 018°05'0 0.0
2017-Jul-23 17:49N 59°19' E 018°05'0 0.0
2017-Jul-23 17:28N 59°19' E 018°05'0 0.0
2017-Jul-23 16:58N 59°19' E 018°05'0 0.0
2017-Jul-23 16:25N 59°19' E 018°05'0 0.0
2017-Jul-23 15:55N 59°19' E 018°05'0 0.0
2017-Jul-23 15:19N 59°19' E 018°05'0 0.0
2017-Jul-23 14:55N 59°19' E 018°05'0 0.0
2017-Jul-23 14:25N 59°19' E 018°05'0 0.0
2017-Jul-23 13:49N 59°19' E 018°05'0 0.0
2017-Jul-23 13:13N 59°19' E 018°05'0 0.0
2017-Jul-23 12:55N 59°19' E 018°05'0 0.0
2017-Jul-23 12:25N 59°19' E 018°05'0 0.0
2017-Jul-23 11:55N 59°19' E 018°05'0 0.0
2017-Jul-23 11:25N 59°19' E 018°05'0 0.0
2017-Jul-23 10:55N 59°19' E 018°05'0 0.0
2017-Jul-23 10:25N 59°19' E 018°05'0 0.9
2017-Jul-23 10:00N 59°19' E 018°06'4 9.0
2017-Jul-23 09:30N 59°21' E 018°14'5 9.6
2017-Jul-23 08:59N 59°22' E 018°24'3 5.5
2017-Jul-23 08:28N 59°25' E 018°25'3 5.5
2017-Jul-23 08:00N 59°26' E 018°30'510.8
2017-Jul-23 07:30N 59°23' E 018°38'510.2
2017-Jul-23 07:00N 59°20' E 018°47'510.6
2017-Jul-23 06:30N 59°16' E 018°54'510.5
2017-Jul-23 06:00N 59°14' E 019°03'3 6.9
2017-Jul-23 05:30N 59°14' E 019°10'4 7.2
2017-Jul-23 05:00N 59°15' E 019°17'4 7.1
2017-Jul-23 04:30N 59°15' E 019°24'4 7.0
2017-Jul-23 04:00N 59°15' E 019°31'3 7.0
2017-Jul-23 03:30N 59°16' E 019°37'4 7.2
2017-Jul-23 03:00N 59°16' E 019°44'3 6.8
2017-Jul-23 02:30N 59°16' E 019°51'4 7.1
2017-Jul-23 02:00N 59°17' E 019°58'4 7.1
2017-Jul-23 01:30N 59°17' E 020°05'4 7.0
2017-Jul-23 01:00N 59°18' E 020°12'4 7.2
2017-Jul-23 00:30N 59°18' E 020°19'4 7.2
2017-Jul-23 00:00N 59°18' E 020°26'4 7.1
2017-Jul-22 23:30N 59°19' E 020°33'4 7.1
2017-Jul-22 23:00N 59°19' E 020°40'4 8.4
2017-Jul-22 22:30N 59°19' E 020°48'510.5
2017-Jul-22 22:00N 59°20' E 020°58'510.4
2017-Jul-22 21:30N 59°20' E 021°08'511.0
2017-Jul-22 21:00N 59°21' E 021°19'5 9.7
2017-Jul-22 20:30N 59°22' E 021°28'510.9
2017-Jul-22 20:00N 59°22' E 021°39'611.1
2017-Jul-22 19:31N 59°23' E 021°50'4 8.7
2017-Jul-22 19:00N 59°24' E 021°58'510.1
2017-Jul-22 18:30N 59°25' E 022°08'510.1
2017-Jul-22 18:00N 59°27' E 022°17'510.2
2017-Jul-22 17:30N 59°30' E 022°26'510.1
2017-Jul-22 17:00N 59°32' E 022°35'510.2
2017-Jul-22 16:31N 59°34' E 022°44'5 9.7
2017-Jul-22 16:01N 59°35' E 022°54'5 9.8
2017-Jul-22 15:30N 59°35' E 023°03'5 9.9
2017-Jul-22 15:00N 59°34' E 023°13'10 9.9
2017-Jul-22 14:00N 59°33' E 023°32'510.1
2017-Jul-22 13:30N 59°32' E 023°42'510.1
2017-Jul-22 13:00N 59°32' E 023°52'510.0
2017-Jul-22 12:30N 59°31' E 024°02'510.0
2017-Jul-22 12:00N 59°31' E 024°12'510.1
2017-Jul-22 11:30N 59°30' E 024°22'510.0
2017-Jul-22 11:00N 59°30' E 024°31'510.0
2017-Jul-22 10:30N 59°32' E 024°41'5 9.2
2017-Jul-22 10:00N 59°28' E 024°46'1 1.6
2017-Jul-22 09:29N 59°27' E 024°46'0 0.0
2017-Jul-22 08:59N 59°27' E 024°46'0 0.0
2017-Jul-22 08:29N 59°27' E 024°46'0 0.0
2017-Jul-22 07:59N 59°27' E 024°46'0 0.0
2017-Jul-22 07:29N 59°27' E 024°46'0 0.0
2017-Jul-22 06:59N 59°27' E 024°46'0 0.0
2017-Jul-22 06:29N 59°27' E 024°46'0 0.0
2017-Jul-22 05:59N 59°27' E 024°46'0 0.0
2017-Jul-22 05:29N 59°27' E 024°46'0 0.4
2017-Jul-22 05:00N 59°27' E 024°46'3 6.5
2017-Jul-22 04:31N 59°30' E 024°44'611.2
2017-Jul-22 04:01N 59°36' E 024°40'4 7.8
2017-Jul-22 03:31N 59°39' E 024°39'2 3.0
2017-Jul-22 03:00N 59°41' E 024°39'2 3.8
2017-Jul-22 02:31N 59°43' E 024°39'2 4.1
2017-Jul-22 02:01N 59°45' E 024°39'2 4.0
2017-Jul-22 01:31N 59°47' E 024°40'3 6.6
2017-Jul-22 01:01N 59°50' E 024°40'3 5.9
2017-Jul-22 00:31N 59°53' E 024°40'1 2.9
2017-Jul-22 00:00N 59°54' E 024°41'2 3.3
2017-Jul-21 23:30N 59°55' E 024°44'2 3.2
2017-Jul-21 23:00N 59°56' E 024°47'2 3.1
2017-Jul-21 22:30N 59°57' E 024°49'2 3.0
2017-Jul-21 22:00N 59°58' E 024°52'1 2.9
2017-Jul-21 21:30N 59°59' E 024°54'1 2.9
2017-Jul-21 21:00N 59°60' E 024°56'2 3.2
2017-Jul-21 20:30N 60°01' E 024°57'2 3.8
2017-Jul-21 20:00N 60°03' E 024°58'3 5.7
2017-Jul-21 19:30N 60°06' E 024°59'3 6.9
2017-Jul-21 19:00N 60°10' E 024°59'1 1.6
2017-Jul-21 18:30N 60°10' E 024°58'0 0.0
2017-Jul-21 18:00N 60°10' E 024°58'0 0.0
2017-Jul-21 17:30N 60°10' E 024°58'0 0.0
2017-Jul-21 17:00N 60°10' E 024°58'0 0.0
2017-Jul-21 16:30N 60°10' E 024°58'0 0.0
2017-Jul-21 16:00N 60°10' E 024°58'0 0.0
2017-Jul-21 15:30N 60°10' E 024°58'0 0.0
2017-Jul-21 15:00N 60°10' E 024°58'0 0.0
2017-Jul-21 14:30N 60°10' E 024°58'0 0.0
2017-Jul-21 14:00N 60°10' E 024°58'0 0.0
2017-Jul-21 13:30N 60°10' E 024°58'0 0.0
2017-Jul-21 12:57N 60°10' E 024°58'0 0.0
2017-Jul-21 12:30N 60°10' E 024°58'0 0.0
2017-Jul-21 12:00N 60°10' E 024°58'0 0.0
2017-Jul-21 11:30N 60°10' E 024°58'0 0.0
2017-Jul-21 11:00N 60°10' E 024°58'0 0.0
2017-Jul-21 10:30N 60°10' E 024°58'1 2.0
2017-Jul-21 10:01N 60°09' E 024°59'4 8.9
2017-Jul-21 09:30N 60°05' E 024°58'4 8.9
2017-Jul-21 09:00N 60°01' E 024°58'5 9.4
2017-Jul-21 08:30N 59°56' E 025°03'3 6.6
2017-Jul-21 08:00N 59°54' E 025°07'0 0.4
2017-Jul-21 07:30N 59°54' E 025°06'0 0.4
2017-Jul-21 07:00N 59°54' E 025°06'0 0.6
2017-Jul-21 06:31N 59°54' E 025°05'1 1.0
2017-Jul-21 06:00N 59°54' E 025°04'1 2.2
2017-Jul-21 05:30N 59°53' E 025°03'4 7.3
2017-Jul-21 05:00N 59°53' E 025°10'611.5
2017-Jul-21 04:31N 59°54' E 025°21'611.5
2017-Jul-21 04:00N 59°54' E 025°33'611.4
2017-Jul-21 03:31N 59°55' E 025°44'611.7
2017-Jul-21 03:01N 59°56' E 025°55'611.5
2017-Jul-21 02:30N 59°58' E 026°06'611.7
2017-Jul-21 02:01N 59°59' E 026°18'611.5
2017-Jul-21 01:30N 60°01' E 026°29'611.2
2017-Jul-21 01:01N 60°01' E 026°40'611.5
2017-Jul-21 00:31N 60°00' E 026°51'611.5
2017-Jul-21 00:00N 59°60' E 027°03'611.5
2017-Jul-20 23:30N 60°02' E 027°13'611.5
2017-Jul-20 23:01N 60°05' E 027°22'611.4
2017-Jul-20 22:30N 60°08' E 027°32'611.5
2017-Jul-20 22:00N 60°11' E 027°42'510.7
2017-Jul-20 21:31N 60°12' E 027°53'611.4
2017-Jul-20 21:00N 60°10' E 028°04'714.4
2017-Jul-20 20:30N 60°07' E 028°18'4 9.1
2017-Jul-20 20:00N 60°05' E 028°25'510.2
2017-Jul-20 19:30N 60°03' E 028°35'611.4
2017-Jul-20 19:01N 60°03' E 028°46'611.2
2017-Jul-20 18:27N 60°02' E 028°59'811.2
2017-Jul-20 17:46N 60°02' E 029°14'411.4
2017-Jul-20 17:23N 60°02' E 029°23'1210.5
2017-Jul-20 16:14N 59°59' E 029°46'410.8
2017-Jul-20 15:52N 59°57' E 029°53'411.5
2017-Jul-20 15:30N 59°55' E 030°01'510.3
2017-Jul-20 15:00N 59°57' E 030°10'1 0.5
2017-Jul-20 13:58N 59°57' E 030°11'0 0.0
2017-Jul-20 13:28N 59°57' E 030°11'0 0.0
2017-Jul-20 12:58N 59°57' E 030°11'0 0.0
2017-Jul-20 12:28N 59°57' E 030°11'0 0.0
2017-Jul-20 11:58N 59°57' E 030°11'0 0.0
2017-Jul-20 11:28N 59°57' E 030°11'0 0.0
2017-Jul-20 10:58N 59°57' E 030°11'0 0.0
2017-Jul-20 10:30N 59°57' E 030°11'0 0.0
2017-Jul-20 09:58N 59°57' E 030°11'0 0.0
2017-Jul-20 09:28N 59°57' E 030°11'0 0.0
2017-Jul-20 08:58N 59°57' E 030°11'0 0.0
2017-Jul-20 08:31N 59°57' E 030°11'0 0.0
2017-Jul-20 08:00N 59°57' E 030°11'0 0.0
2017-Jul-20 07:31N 59°57' E 030°11'0 0.0
2017-Jul-20 06:58N 59°57' E 030°11'0 0.0
2017-Jul-20 06:30N 59°57' E 030°11'0 0.0
2017-Jul-20 05:57N 59°57' E 030°11'0 0.0
2017-Jul-20 05:25N 59°57' E 030°11'0 0.0
2017-Jul-20 05:00N 59°57' E 030°11'0 0.0
2017-Jul-20 04:27N 59°57' E 030°11'0 0.0
2017-Jul-20 04:00N 59°57' E 030°11'0 0.0
2017-Jul-20 03:28N 59°57' E 030°11'0 0.0
2017-Jul-20 03:00N 59°57' E 030°11'0 0.0
2017-Jul-20 02:28N 59°57' E 030°11'0 0.0
2017-Jul-20 01:57N 59°57' E 030°11'0 0.0
2017-Jul-20 01:28N 59°57' E 030°11'0 0.0
2017-Jul-20 01:01N 59°57' E 030°11'0 0.0
2017-Jul-20 00:27N 59°57' E 030°11'0 0.0
2017-Jul-20 00:00N 59°57' E 030°11'0 0.0
2017-Jul-19 23:27N 59°57' E 030°11'0 0.0
2017-Jul-19 23:00N 59°57' E 030°11'0 0.0
2017-Jul-19 22:30N 59°57' E 030°11'0 0.0
2017-Jul-19 22:00N 59°57' E 030°11'0 0.0
2017-Jul-19 21:30N 59°57' E 030°12'0 0.0
2017-Jul-19 21:00N 59°57' E 030°11'0 0.0
2017-Jul-19 20:30N 59°57' E 030°11'0 0.0
2017-Jul-19 20:00N 59°57' E 030°11'0 0.0
2017-Jul-19 19:31N 59°57' E 030°11'0 0.0
2017-Jul-19 19:00N 59°57' E 030°11'0 0.0
2017-Jul-19 18:30N 59°57' E 030°11'0 0.0
2017-Jul-19 18:01N 59°57' E 030°11'0 0.0
2017-Jul-19 17:30N 59°57' E 030°11'0 0.0
2017-Jul-19 17:00N 59°57' E 030°11'0 0.0
2017-Jul-19 16:30N 59°57' E 030°11'0 0.0
2017-Jul-19 16:00N 59°57' E 030°11'0 0.0
2017-Jul-19 15:31N 59°57' E 030°11'0 0.0
2017-Jul-19 14:57N 59°57' E 030°11'0 0.0
2017-Jul-19 14:30N 59°57' E 030°11'0 0.0
2017-Jul-19 14:00N 59°57' E 030°11'0 0.0
2017-Jul-19 13:30N 59°57' E 030°11'0 0.0
2017-Jul-19 13:00N 59°57' E 030°11'0 0.0
2017-Jul-19 12:30N 59°57' E 030°11'0 0.0
2017-Jul-19 12:00N 59°57' E 030°11'0 0.0
2017-Jul-19 11:30N 59°57' E 030°11'0 0.0
2017-Jul-19 11:00N 59°57' E 030°11'0 0.0
2017-Jul-19 10:27N 59°57' E 030°11'0 0.0
2017-Jul-19 10:00N 59°57' E 030°12'0 0.0
2017-Jul-19 09:30N 59°57' E 030°11'0 0.0
2017-Jul-19 09:00N 59°57' E 030°11'0 0.0
2017-Jul-19 08:30N 59°57' E 030°11'0 0.0
2017-Jul-19 07:57N 59°57' E 030°11'0 0.0
2017-Jul-19 07:30N 59°57' E 030°11'0 0.0
2017-Jul-19 06:57N 59°57' E 030°11'0 0.0
2017-Jul-19 06:30N 59°57' E 030°11'0 0.0
2017-Jul-19 06:00N 59°57' E 030°11'0 0.0
2017-Jul-19 05:30N 59°57' E 030°11'0 0.0
2017-Jul-19 05:00N 59°57' E 030°11'3 4.7
2017-Jul-19 04:26N 59°57' E 030°06'410.3
2017-Jul-19 04:00N 59°56' E 029°57'611.4
2017-Jul-19 03:30N 59°58' E 029°47'611.4
2017-Jul-19 03:00N 60°00' E 029°37'16 8.3
2017-Jul-19 01:04N 60°02' E 029°05'0 7.0
2017-Jul-19 01:00N 60°02' E 029°04'6 7.1
2017-Jul-19 00:05N 60°02' E 028°51'1 7.0
2017-Jul-19 00:00N 60°02' E 028°50'4 7.0
2017-Jul-18 23:29N 60°02' E 028°42'3 7.3
2017-Jul-18 23:00N 60°02' E 028°35'510.4
2017-Jul-18 22:30N 60°03' E 028°25'510.5
2017-Jul-18 22:00N 60°07' E 028°17'510.5
2017-Jul-18 21:30N 60°08' E 028°07'510.7
2017-Jul-18 21:00N 60°09' E 027°57'611.2
2017-Jul-18 20:31N 60°10' E 027°45'510.3
2017-Jul-18 20:00N 60°07' E 027°36'611.6
2017-Jul-18 19:30N 60°05' E 027°26'5 9.9
2017-Jul-18 19:00N 60°02' E 027°18'611.7
2017-Jul-18 18:30N 59°59' E 027°08'611.6
2017-Jul-18 18:00N 59°58' E 026°56'611.8
2017-Jul-18 17:30N 59°59' E 026°45'611.6
2017-Jul-18 17:00N 59°58' E 026°33'611.9
2017-Jul-18 16:30N 59°57' E 026°22'611.8
2017-Jul-18 16:00N 59°55' E 026°10'611.7
2017-Jul-18 15:30N 59°53' E 025°59'611.7
2017-Jul-18 15:00N 59°53' E 025°48'1010.2
2017-Jul-18 14:00N 59°53' E 025°27'2 4.3
2017-Jul-18 13:30N 59°54' E 025°24'2 3.6
2017-Jul-18 13:00N 59°55' E 025°21'2 4.4
2017-Jul-18 12:30N 59°56' E 025°17'2 4.9
2017-Jul-18 12:00N 59°57' E 025°12'2 4.4
2017-Jul-18 11:30N 59°58' E 025°08'2 4.4
2017-Jul-18 11:00N 59°59' E 025°04'2 3.9
2017-Jul-18 10:30N 59°60' E 025°01'2 4.8
2017-Jul-18 10:00N 60°01' E 024°58'5 9.3
2017-Jul-18 09:31N 60°06' E 024°58'3 6.9
2017-Jul-18 09:00N 60°10' E 024°59'1 1.7
2017-Jul-18 08:30N 60°10' E 024°58'0 0.0
2017-Jul-18 08:00N 60°10' E 024°58'0 0.0
2017-Jul-18 07:30N 60°10' E 024°58'0 0.0
2017-Jul-18 07:00N 60°10' E 024°58'0 0.0
2017-Jul-18 06:30N 60°10' E 024°58'0 0.0
2017-Jul-18 06:00N 60°10' E 024°58'0 0.0
2017-Jul-18 05:30N 60°10' E 024°58'0 0.0
2017-Jul-18 05:00N 60°10' E 024°58'0 0.0
2017-Jul-18 04:30N 60°10' E 024°58'1 1.2
2017-Jul-18 04:00N 60°10' E 024°59'4 7.9
2017-Jul-18 03:30N 60°06' E 024°58'4 7.8
2017-Jul-18 03:00N 60°02' E 024°58'2 3.7
2017-Jul-18 02:30N 59°60' E 024°58'3 5.8
2017-Jul-18 02:00N 59°59' E 025°03'2 4.3
2017-Jul-18 01:30N 59°58' E 025°07'2 3.3
2017-Jul-18 01:00N 59°57' E 025°10'2 3.0
2017-Jul-18 00:30N 59°57' E 025°13'1 2.7
2017-Jul-18 00:00N 59°56' E 025°16'1 2.5
2017-Jul-17 23:31N 59°56' E 025°18'1 2.2
2017-Jul-17 23:00N 59°55' E 025°20'1 2.0
2017-Jul-17 22:30N 59°55' E 025°22'1 2.0
2017-Jul-17 22:00N 59°54' E 025°24'2 3.7
2017-Jul-17 21:30N 59°53' E 025°26'3 6.1
2017-Jul-17 21:00N 59°50' E 025°26'3 6.4
2017-Jul-17 20:31N 59°47' E 025°26'2 4.1
2017-Jul-17 20:01N 59°46' E 025°22'2 4.9
2017-Jul-17 19:30N 59°46' E 025°17'3 5.1
2017-Jul-17 19:00N 59°46' E 025°12'2 3.9
2017-Jul-17 18:30N 59°45' E 025°08'2 4.0
2017-Jul-17 18:00N 59°45' E 025°04'2 4.3
2017-Jul-17 17:30N 59°44' E 025°00'2 4.1
2017-Jul-17 17:00N 59°44' E 024°56'2 3.8
2017-Jul-17 16:31N 59°43' E 024°52'3 5.3
2017-Jul-17 16:00N 59°42' E 024°49'3 6.9
2017-Jul-17 15:31N 59°39' E 024°45'2 4.6
2017-Jul-17 15:01N 59°37' E 024°42'4 8.2
2017-Jul-17 14:31N 59°33' E 024°44'510.5
2017-Jul-17 14:00N 59°28' E 024°46'1 1.7
2017-Jul-17 13:30N 59°27' E 024°46'0 0.0
2017-Jul-17 13:00N 59°27' E 024°46'0 0.0
2017-Jul-17 12:30N 59°27' E 024°46'0 0.0
2017-Jul-17 11:57N 59°27' E 024°46'0 0.0
2017-Jul-17 11:30N 59°27' E 024°46'0 0.0
2017-Jul-17 11:00N 59°27' E 024°46'0 0.0
2017-Jul-17 10:30N 59°27' E 024°46'0 0.0
2017-Jul-17 10:00N 59°27' E 024°46'0 0.0
2017-Jul-17 09:30N 59°27' E 024°46'0 0.0
2017-Jul-17 09:00N 59°27' E 024°46'0 0.0
2017-Jul-17 08:30N 59°27' E 024°46'0 0.0
2017-Jul-17 08:00N 59°27' E 024°46'0 0.0
2017-Jul-17 07:30N 59°27' E 024°46'0 0.0
2017-Jul-17 07:00N 59°27' E 024°46'0 0.0
2017-Jul-17 06:29N 59°27' E 024°46'0 0.0
2017-Jul-17 06:00N 59°27' E 024°46'0 0.0
2017-Jul-17 05:30N 59°27' E 024°46'0 0.9
2017-Jul-17 05:00N 59°27' E 024°46'4 8.6
2017-Jul-17 04:30N 59°30' E 024°39'5 9.1
2017-Jul-17 04:00N 59°30' E 024°30'2 4.7
2017-Jul-17 03:30N 59°30' E 024°26'2 4.1
2017-Jul-17 03:00N 59°30' E 024°22'2 4.3
2017-Jul-17 02:30N 59°30' E 024°18'3 5.6
2017-Jul-17 02:00N 59°30' E 024°12'3 5.8
2017-Jul-17 01:30N 59°30' E 024°06'2 4.2
2017-Jul-17 01:00N 59°30' E 024°02'3 5.9
2017-Jul-17 00:30N 59°30' E 023°56'3 6.9
2017-Jul-17 00:00N 59°30' E 023°50'3 7.0
2017-Jul-16 23:30N 59°30' E 023°43'3 7.0
2017-Jul-16 23:00N 59°29' E 023°36'3 6.9
2017-Jul-16 22:30N 59°29' E 023°29'4 7.1
2017-Jul-16 22:00N 59°27' E 023°23'4 7.1
2017-Jul-16 21:30N 59°26' E 023°16'4 7.5
2017-Jul-16 21:00N 59°25' E 023°09'4 8.1
2017-Jul-16 20:30N 59°23' E 023°02'3 6.7
2017-Jul-16 20:01N 59°22' E 022°56'3 5.4
2017-Jul-16 19:30N 59°20' E 022°51'1 2.4
2017-Jul-16 19:00N 59°20' E 022°49'1 2.4
2017-Jul-16 18:30N 59°19' E 022°47'1 2.4
2017-Jul-16 18:00N 59°19' E 022°45'1 2.4
2017-Jul-16 17:30N 59°19' E 022°43'1 2.4
2017-Jul-16 17:01N 59°18' E 022°40'1 2.4
2017-Jul-16 16:30N 59°18' E 022°38'4 8.3
2017-Jul-16 16:00N 59°17' E 022°30'612.0
2017-Jul-16 15:31N 59°17' E 022°18'611.5
2017-Jul-16 15:00N 59°17' E 022°07'4 8.2
2017-Jul-16 14:30N 59°17' E 021°59'3 5.1
2017-Jul-16 14:00N 59°17' E 021°54'2 4.7
2017-Jul-16 13:30N 59°17' E 021°49'2 4.7
2017-Jul-16 13:00N 59°17' E 021°45'2 4.6
2017-Jul-16 12:30N 59°17' E 021°40'3 5.7
2017-Jul-16 12:00N 59°17' E 021°35'2 4.6
2017-Jul-16 11:30N 59°17' E 021°30'3 5.0
2017-Jul-16 11:01N 59°17' E 021°25'2 4.6
2017-Jul-16 10:30N 59°17' E 021°21'2 4.4
2017-Jul-16 10:01N 59°17' E 021°17'2 4.2
2017-Jul-16 09:30N 59°17' E 021°12'2 4.2
2017-Jul-16 09:00N 59°17' E 021°08'2 4.0
2017-Jul-16 08:30N 59°17' E 021°04'2 4.5
2017-Jul-16 08:00N 59°16' E 021°00'2 3.6
2017-Jul-16 07:31N 59°16' E 020°57'2 3.4
2017-Jul-16 07:00N 59°16' E 020°53'2 3.2
2017-Jul-16 06:30N 59°16' E 020°50'2 3.3
2017-Jul-16 06:00N 59°16' E 020°47'1 3.0
2017-Jul-16 05:30N 59°16' E 020°44'2 3.3
2017-Jul-16 05:00N 59°16' E 020°41'2 3.9
2017-Jul-16 04:30N 59°16' E 020°37'2 3.9
2017-Jul-16 04:01N 59°16' E 020°33'2 4.0
2017-Jul-16 03:31N 59°16' E 020°29'2 4.1
2017-Jul-16 03:00N 59°16' E 020°25'2 3.7
2017-Jul-16 02:31N 59°15' E 020°22'4 7.0
2017-Jul-16 02:00N 59°15' E 020°15'3 6.0
2017-Jul-16 01:31N 59°15' E 020°09'2 3.9
2017-Jul-16 01:00N 59°15' E 020°05'2 4.7
2017-Jul-16 00:30N 59°15' E 020°01'2 4.2
2017-Jul-16 00:00N 59°15' E 019°57'3 6.4
2017-Jul-15 23:30N 59°15' E 019°50'4 7.3
2017-Jul-15 23:00N 59°15' E 019°43'3 6.7
2017-Jul-15 22:30N 59°15' E 019°37'2 4.5
2017-Jul-15 22:00N 59°15' E 019°32'3 6.8
2017-Jul-15 21:30N 59°14' E 019°25'4 8.0
2017-Jul-15 21:00N 59°14' E 019°18'3 6.6
2017-Jul-15 20:30N 59°14' E 019°11'4 7.6
2017-Jul-15 20:00N 59°14' E 019°04'4 8.2
2017-Jul-15 19:30N 59°16' E 018°57'4 7.5
2017-Jul-15 19:00N 59°18' E 018°51'510.2
2017-Jul-15 18:30N 59°22' E 018°44'511.0
2017-Jul-15 18:00N 59°23' E 018°34'5 9.9
2017-Jul-15 17:30N 59°26' E 018°25'4 8.5
2017-Jul-15 17:00N 59°21' E 018°26'5 9.8
2017-Jul-15 16:30N 59°22' E 018°17'510.2
2017-Jul-15 16:00N 59°19' E 018°08'1 1.9
2017-Jul-15 15:30N 59°19' E 018°06'0 0.0
2017-Jul-15 15:00N 59°19' E 018°06'0 0.0
2017-Jul-15 14:00N 59°19' E 018°06'0 0.0
2017-Jul-15 13:30N 59°19' E 018°06'0 0.0
2017-Jul-15 13:00N 59°19' E 018°06'0 0.0
2017-Jul-15 12:30N 59°19' E 018°06'0 0.0
2017-Jul-15 12:00N 59°19' E 018°06'0 0.0
2017-Jul-15 11:30N 59°19' E 018°06'0 0.0
2017-Jul-15 11:00N 59°19' E 018°06'0 0.0
2017-Jul-15 10:30N 59°19' E 018°06'0 0.0
2017-Jul-15 10:00N 59°19' E 018°06'0 0.0
2017-Jul-15 09:30N 59°19' E 018°06'0 0.0
2017-Jul-15 09:00N 59°19' E 018°06'0 0.0
2017-Jul-15 08:30N 59°19' E 018°06'0 0.0
2017-Jul-15 08:00N 59°19' E 018°06'0 0.0
2017-Jul-15 07:30N 59°19' E 018°06'0 0.0
2017-Jul-15 07:00N 59°19' E 018°06'0 0.0
2017-Jul-15 06:30N 59°19' E 018°06'1 2.8
2017-Jul-15 06:00N 59°19' E 018°09'511.0
2017-Jul-15 05:31N 59°23' E 018°17'5 9.7
2017-Jul-15 05:00N 59°22' E 018°27'5 9.7
2017-Jul-15 04:30N 59°26' E 018°23'610.6
2017-Jul-15 03:58N 59°23' E 018°33'511.0
2017-Jul-15 03:30N 59°22' E 018°43'511.0
2017-Jul-15 03:00N 59°18' E 018°50'4 9.2
2017-Jul-15 02:30N 59°16' E 018°58'4 9.0
2017-Jul-15 02:01N 59°13' E 019°05'3 5.6
2017-Jul-15 01:30N 59°12' E 019°10'3 6.5
2017-Jul-15 01:00N 59°09' E 019°10'3 6.7
2017-Jul-15 00:31N 59°06' E 019°08'4 8.4
2017-Jul-15 00:00N 59°02' E 019°06'4 8.1
2017-Jul-14 23:31N 58°58' E 019°03'4 7.3
2017-Jul-14 23:00N 58°55' E 019°01'510.3
2017-Jul-14 22:30N 58°50' E 018°58'510.4
2017-Jul-14 22:01N 58°45' E 018°54'510.4
2017-Jul-14 21:30N 58°40' E 018°51'510.5
2017-Jul-14 21:00N 58°35' E 018°47'510.5
2017-Jul-14 20:30N 58°30' E 018°44'611.0
2017-Jul-14 20:00N 58°25' E 018°41'510.2
2017-Jul-14 19:30N 58°20' E 018°38'510.7
2017-Jul-14 19:00N 58°15' E 018°35'5 9.9
2017-Jul-14 18:30N 58°10' E 018°31'612.1
2017-Jul-14 18:01N 58°05' E 018°26'510.3
2017-Jul-14 17:30N 58°00' E 018°22'5 9.9
2017-Jul-14 17:00N 57°55' E 018°19'610.5
2017-Jul-14 16:24N 57°49' E 018°16'3 8.6
2017-Jul-14 16:00N 57°46' E 018°15'1 1.3
2017-Jul-14 15:30N 57°45' E 018°14'1 1.1
2017-Jul-14 15:00N 57°45' E 018°13'1 1.0
2017-Jul-14 14:19N 57°45' E 018°12'0 0.9
2017-Jul-14 14:00N 57°45' E 018°12'0 0.8
2017-Jul-14 13:30N 57°44' E 018°11'0 0.9
2017-Jul-14 13:01N 57°44' E 018°10'1 1.4
2017-Jul-14 12:27N 57°43' E 018°10'  

Dump ship's entire track history